Time;durP1;ratioP1;P1;durP2;ratioP2;P2;SDS_P1;SDS_P2;PMS_P1;PMS_P2;Temp;Humidity;BMP_temperature;BMP_pressure;BME280_temperature;BME280_humidity;BME280_pressure;Samples;Min_cycle;Max_cycle;Signal;HPM_P1;HPM_P2
2023/07/11 00:00:38;;;;;;;17.40;9.77;;;;;;;19.56;87.76;95606.22;5031909;28;20691;-74
2023/07/11 00:03:04;;;;;;;19.27;10.33;;;;;;;19.55;87.30;95602.75;5026766;28;20250;-74
2023/07/11 00:05:29;;;;;;;15.97;10.03;;;;;;;19.70;86.72;95611.00;5024336;28;20234;-74
2023/07/11 00:07:55;;;;;;;16.27;9.93;;;;;;;19.60;87.46;95615.31;5019603;28;20234;-74
2023/07/11 00:10:20;;;;;;;15.47;10.00;;;;;;;19.64;87.33;95614.59;5013029;28;20631;-74
2023/07/11 00:12:46;;;;;;;18.80;9.80;;;;;;;19.72;86.19;95611.56;5017612;28;20242;-74
2023/07/11 00:15:12;;;;;;;17.03;9.93;;;;;;;19.56;86.82;95614.94;5010588;28;20320;-74
2023/07/11 00:17:38;;;;;;;18.60;9.53;;;;;;;19.66;86.26;95609.03;5017558;28;20368;-75
2023/07/11 00:20:08;;;;;;;14.70;10.17;;;;;;;19.64;86.33;95617.25;5015060;28;20316;-74
2023/07/11 00:22:33;;;;;;;14.43;9.80;;;;;;;19.50;86.64;95613.25;5015786;28;20622;-74
2023/07/11 00:24:59;;;;;;;15.33;9.90;;;;;;;19.46;87.01;95614.78;4996002;28;20218;-74
2023/07/11 00:27:24;;;;;;;16.57;9.87;;;;;;;19.42;87.26;95616.28;5016111;28;20234;-74
2023/07/11 00:29:50;;;;;;;15.30;9.77;;;;;;;19.45;87.36;95613.97;5029179;28;20229;-74
2023/07/11 00:32:16;;;;;;;17.80;9.53;;;;;;;19.46;87.17;95606.81;5015171;28;20710;-75
2023/07/11 00:34:41;;;;;;;15.80;9.43;;;;;;;19.51;87.64;95614.88;5013359;28;20242;-74
2023/07/11 00:37:07;;;;;;;19.13;9.53;;;;;;;19.29;88.60;95598.78;4998258;28;20235;-74
2023/07/11 00:39:33;;;;;;;18.37;10.00;;;;;;;19.29;88.94;95606.75;5027494;28;20278;-74
2023/07/11 00:41:59;;;;;;;14.17;9.40;;;;;;;19.20;89.67;95599.41;5029665;28;20237;-74
2023/07/11 00:44:24;;;;;;;18.27;9.97;;;;;;;19.26;89.55;95601.09;5011577;28;20375;-74
2023/07/11 00:46:50;;;;;;;17.63;10.10;;;;;;;19.33;88.92;95596.44;5034903;28;21442;-74
2023/07/11 00:49:17;;;;;;;16.03;10.10;;;;;;;19.31;89.47;95594.03;5015279;28;20238;-74
2023/07/11 00:51:47;;;;;;;16.73;9.80;;;;;;;19.13;90.75;95590.75;5019801;28;20233;-74
2023/07/11 00:54:14;;;;;;;18.83;10.40;;;;;;;19.16;90.44;95584.97;5032364;28;20251;-73
2023/07/11 00:56:46;;;;;;;19.27;10.57;;;;;;;19.13;90.56;95582.81;5029485;28;20288;-74
2023/07/11 00:59:12;;;;;;;18.37;9.77;;;;;;;19.04;91.33;95590.31;5015887;28;20588;-74
2023/07/11 01:01:38;;;;;;;21.47;10.20;;;;;;;18.88;91.96;95583.09;5011459;28;20226;-74
2023/07/11 01:04:05;;;;;;;21.37;10.13;;;;;;;19.06;91.37;95595.41;5002848;28;20366;-74
2023/07/11 01:06:32;;;;;;;15.97;10.03;;;;;;;19.00;91.69;95585.72;5009275;28;20251;-74
2023/07/11 01:08:58;;;;;;;17.77;10.43;;;;;;;18.98;91.86;95596.56;5008624;28;20257;-74
2023/07/11 01:11:24;;;;;;;20.30;10.20;;;;;;;18.98;92.11;95595.75;5009700;28;20237;-73
2023/07/11 01:13:49;;;;;;;18.57;10.33;;;;;;;19.01;91.33;95600.59;5009958;28;20233;-74
2023/07/11 01:16:15;;;;;;;17.57;10.23;;;;;;;18.92;91.38;95588.72;5023130;28;20233;-73
2023/07/11 01:18:40;;;;;;;16.57;9.80;;;;;;;18.88;91.21;95592.91;5031743;28;20233;-74
2023/07/11 01:21:06;;;;;;;13.77;9.27;;;;;;;18.93;90.02;95585.03;5033918;28;20226;-73
2023/07/11 01:23:33;;;;;;;12.73;8.20;;;;;;;19.07;87.67;95583.72;5023840;28;20959;-73
2023/07/11 01:26:00;;;;;;;14.20;8.73;;;;;;;19.06;88.17;95584.78;5046003;28;20264;-74
2023/07/11 01:28:26;;;;;;;12.67;8.47;;;;;;;19.04;88.01;95585.00;5017285;28;20226;-73
2023/07/11 01:30:51;;;;;;;15.07;8.33;;;;;;;19.12;87.36;95582.00;5020146;28;20226;-73
2023/07/11 01:33:17;;;;;;;12.83;8.03;;;;;;;18.72;88.08;95586.47;5001390;28;20226;-73
2023/07/11 01:35:42;;;;;;;11.33;7.67;;;;;;;18.59;88.54;95589.38;5049717;28;20350;-74
2023/07/11 01:38:08;;;;;;;12.93;8.17;;;;;;;18.61;87.44;95582.78;5018883;28;20233;-73
2023/07/11 01:40:33;;;;;;;12.33;7.63;;;;;;;18.88;87.17;95582.28;5025889;28;20245;-72
2023/07/11 01:42:59;;;;;;;11.77;8.27;;;;;;;18.74;87.52;95582.56;5041861;28;20694;-73
2023/07/11 01:45:24;;;;;;;15.87;7.80;;;;;;;18.69;88.52;95571.03;5021944;28;20333;-73
2023/07/11 01:47:50;;;;;;;12.20;8.27;;;;;;;18.71;88.53;95569.75;5033528;28;20240;-73
2023/07/11 01:50:15;;;;;;;14.03;8.47;;;;;;;18.80;88.69;95573.66;5017536;28;20610;-74
2023/07/11 01:52:41;;;;;;;11.80;8.50;;;;;;;18.77;89.45;95568.03;5027259;28;20229;-74
2023/07/11 01:55:10;;;;;;;14.37;8.83;;;;;;;18.58;91.11;95567.34;5008186;28;20222;-75
2023/07/11 01:57:35;;;;;;;16.30;9.63;;;;;;;18.65;90.96;95562.72;5026866;28;20368;-74
2023/07/11 02:00:01;;;;;;;17.63;8.93;;;;;;;18.58;91.14;95567.34;5033253;28;20739;-74
2023/07/11 02:02:27;;;;;;;13.90;9.20;;;;;;;18.53;91.61;95577.84;5012442;28;20225;-73
2023/07/11 02:04:52;;;;;;;14.10;9.40;;;;;;;18.71;91.04;95572.41;5004707;28;20287;-73
2023/07/11 02:07:18;;;;;;;14.47;8.90;;;;;;;18.70;91.12;95575.31;5011665;28;20700;-73
2023/07/11 02:09:43;;;;;;;15.13;9.20;;;;;;;18.67;91.04;95573.09;5013366;28;20284;-73
2023/07/11 02:12:09;;;;;;;13.10;8.80;;;;;;;18.55;91.16;95573.13;5007456;28;20227;-74
2023/07/11 02:14:36;;;;;;;14.73;9.03;;;;;;;18.63;90.66;95570.09;5013388;28;20335;-73
2023/07/11 02:17:02;;;;;;;13.70;8.83;;;;;;;18.61;90.94;95572.19;4996988;28;20242;-74
2023/07/11 02:19:27;;;;;;;13.70;8.80;;;;;;;18.49;91.24;95576.69;5011530;28;20234;-73
2023/07/11 02:21:52;;;;;;;15.80;9.37;;;;;;;18.42;91.71;95575.16;5010798;28;20253;-74
2023/07/11 02:24:18;;;;;;;15.50;8.43;;;;;;;18.26;91.97;95574.03;5026679;28;20245;-73
2023/07/11 02:26:44;;;;;;;12.50;8.47;;;;;;;18.57;90.35;95573.69;5008735;28;20244;-73
2023/07/11 02:29:09;;;;;;;12.70;8.27;;;;;;;18.57;90.76;95586.97;4995660;28;20242;-73
2023/07/11 02:31:35;;;;;;;11.20;8.20;;;;;;;18.65;89.58;95583.16;5029103;28;20299;-73
2023/07/11 02:34:01;;;;;;;14.43;8.37;;;;;;;18.54;89.14;95573.34;5014353;28;20826;-74
2023/07/11 02:36:27;;;;;;;13.53;8.30;;;;;;;18.48;89.54;95571.63;5028816;28;20762;-74
2023/07/11 02:38:53;;;;;;;12.37;8.07;;;;;;;18.59;88.76;95582.22;5007324;28;20246;-74
2023/07/11 02:41:18;;;;;;;12.40;8.33;;;;;;;18.36;89.10;95574.28;5009923;28;20258;-74
2023/07/11 02:43:45;;;;;;;13.53;8.10;;;;;;;18.51;88.56;95560.56;5006630;28;20250;-74
2023/07/11 02:46:10;;;;;;;16.23;8.30;;;;;;;18.36;89.09;95573.47;5014895;28;20287;-74
2023/07/11 02:48:36;;;;;;;12.77;8.10;;;;;;;18.38;89.36;95566.06;5034682;28;20234;-74
2023/07/11 02:51:01;;;;;;;12.50;8.10;;;;;;;18.29;90.11;95568.28;5033683;28;20705;-74
2023/07/11 02:53:27;;;;;;;13.57;8.00;;;;;;;18.26;90.50;95568.75;5001032;28;20642;-74
2023/07/11 02:55:52;;;;;;;12.67;8.27;;;;;;;18.22;90.30;95572.91;5015301;28;20226;-74
2023/07/11 02:58:18;;;;;;;11.63;8.50;;;;;;;18.10;91.93;95570.22;5017130;28;20642;-74
2023/07/11 03:00:47;;;;;;;14.33;8.67;;;;;;;18.02;92.45;95577.72;5007770;28;20308;-74
2023/07/11 03:03:13;;;;;;;14.83;8.67;;;;;;;18.03;92.90;95574.03;5030359;28;20290;-74
2023/07/11 03:05:48;;;;;;;13.97;8.53;;;;;;;17.99;92.98;95578.97;5034250;28;20609;-75
2023/07/11 03:08:14;;;;;;;14.90;8.60;;;;;;;17.90;93.17;95569.75;5017383;28;20260;-74
2023/07/11 03:10:40;;;;;;;13.73;8.30;;;;;;;18.18;91.98;95566.41;5040345;28;20683;-74
2023/07/11 03:13:05;;;;;;;16.30;8.77;;;;;;;18.29;90.63;95570.94;5033311;28;20229;-74
2023/07/11 03:15:33;;;;;;;14.13;8.30;;;;;;;18.15;91.00;95573.00;5013223;28;20253;-74
2023/07/11 03:17:58;;;;;;;13.87;8.10;;;;;;;18.26;90.94;95574.03;5004229;28;20623;-74
2023/07/11 03:20:24;;;;;;;16.60;8.43;;;;;;;18.11;90.94;95579.78;5027657;28;20218;-74
2023/07/11 03:22:49;;;;;;;14.33;8.43;;;;;;;18.07;91.38;95583.13;5037039;28;20229;-74
2023/07/11 03:25:15;;;;;;;15.23;8.37;;;;;;;18.03;91.20;95587.28;5012776;28;20230;-73
2023/07/11 03:27:40;;;;;;;12.47;8.00;;;;;;;18.19;90.73;95591.91;5038334;28;20232;-73
2023/07/11 03:30:06;;;;;;;17.33;9.00;;;;;;;18.15;90.95;95590.72;5048019;28;20293;-73
2023/07/11 03:32:32;;;;;;;13.73;8.13;;;;;;;18.14;90.88;95584.63;5049575;28;20229;-73
2023/07/11 03:34:57;;;;;;;12.50;7.70;;;;;;;18.15;90.91;95586.25;5037084;28;20233;-73
2023/07/11 03:37:23;;;;;;;12.43;8.10;;;;;;;18.39;89.25;95589.69;5034926;28;20226;-73
2023/07/11 03:39:48;;;;;;;11.90;7.80;;;;;;;18.41;88.83;95590.28;5052103;28;20247;-73
2023/07/11 03:42:14;;;;;;;13.17;8.10;;;;;;;18.18;89.63;95591.09;5034531;28;20233;-73
2023/07/11 03:44:41;;;;;;;15.40;8.20;;;;;;;17.99;90.64;95592.22;5034999;28;20291;-74
2023/07/11 03:47:07;;;;;;;14.47;7.70;;;;;;;18.15;90.14;95596.84;5054829;28;20668;-73
2023/07/11 03:49:32;;;;;;;14.57;8.30;;;;;;;18.32;89.95;95588.22;5055054;28;20285;-74
2023/07/11 03:51:58;;;;;;;14.60;8.20;;;;;;;18.32;89.98;95593.53;5036667;28;20242;-74
2023/07/11 03:54:23;;;;;;;14.17;8.20;;;;;;;18.22;90.61;95593.28;5042089;28;20228;-73
2023/07/11 03:56:51;;;;;;;15.93;8.03;;;;;;;18.17;90.43;95591.31;5052088;28;20222;-74
2023/07/11 03:59:16;;;;;;;14.67;8.10;;;;;;;18.26;90.70;95587.28;5055542;28;20249;-74
2023/07/11 04:01:41;;;;;;;13.00;8.17;;;;;;;18.35;89.89;95575.28;5029430;28;20230;-73
2023/07/11 04:04:07;;;;;;;15.40;8.37;;;;;;;18.46;90.03;95574.50;5039832;28;20241;-73
2023/07/11 04:06:33;;;;;;;12.90;8.70;;;;;;;18.32;90.77;95577.63;5044434;28;20277;-73
2023/07/11 04:08:58;;;;;;;13.40;8.50;;;;;;;18.35;90.97;95585.91;5054163;28;20236;-74
2023/07/11 04:11:24;;;;;;;13.27;8.17;;;;;;;18.43;90.31;95593.50;5052986;28;20210;-73
2023/07/11 04:13:49;;;;;;;12.73;8.27;;;;;;;18.29;90.90;95584.19;5047314;28;20264;-74
2023/07/11 04:16:15;;;;;;;14.33;8.30;;;;;;;18.39;90.86;95596.84;5048847;28;20234;-74
2023/07/11 04:18:40;;;;;;;14.77;8.57;;;;;;;18.62;89.34;95596.88;5036913;28;20241;-74
2023/07/11 04:21:06;;;;;;;15.33;8.30;;;;;;;18.65;89.14;95594.53;5034352;28;20252;-74
2023/07/11 04:23:31;;;;;;;17.00;8.50;;;;;;;18.70;88.25;95604.47;5016254;28;20221;-73
2023/07/11 04:25:56;;;;;;;15.27;8.23;;;;;;;18.81;88.54;95611.59;5030087;28;20237;-73
2023/07/11 04:28:22;;;;;;;17.73;8.80;;;;;;;18.72;87.68;95605.81;5030912;28;20233;-73
2023/07/11 04:30:48;;;;;;;14.70;8.77;;;;;;;18.74;87.25;95608.25;5022802;28;20706;-73
2023/07/11 04:33:13;;;;;;;14.80;8.90;;;;;;;18.82;86.01;95599.94;5031709;28;20271;-73
2023/07/11 04:35:40;;;;;;;19.50;8.87;;;;;;;18.87;86.34;95613.31;5039632;28;20241;-74
2023/07/11 04:38:05;;;;;;;12.13;8.67;;;;;;;18.88;86.65;95608.81;5032495;28;20240;-74
2023/07/11 04:40:31;;;;;;;17.07;9.40;;;;;;;18.82;86.69;95610.53;5023184;28;20305;-74
2023/07/11 04:42:57;;;;;;;16.10;9.67;;;;;;;18.97;85.39;95620.66;5046774;28;20238;-74
2023/07/11 04:45:23;;;;;;;18.37;9.53;;;;;;;18.97;86.32;95612.72;5026708;28;20229;-75
2023/07/11 04:47:48;;;;;;;16.17;9.43;;;;;;;19.00;85.91;95621.03;5008931;28;20561;-75
2023/07/11 04:50:14;;;;;;;17.60;10.07;;;;;;;18.98;84.67;95620.44;5033844;28;20708;-76
2023/07/11 04:52:39;;;;;;;17.87;10.27;;;;;;;19.07;84.59;95618.22;5018541;28;20295;-75
2023/07/11 04:55:05;;;;;;;18.00;10.07;;;;;;;19.13;85.10;95626.06;5029860;28;20229;-75
2023/07/11 04:57:31;;;;;;;15.93;9.80;;;;;;;19.17;84.86;95631.72;5028493;28;20232;-75
2023/07/11 04:59:56;;;;;;;17.27;10.50;;;;;;;19.18;84.29;95622.69;5013165;28;20223;-75
2023/07/11 05:02:22;;;;;;;20.73;9.63;;;;;;;19.03;86.05;95630.38;5021715;28;20436;-75
2023/07/11 05:04:47;;;;;;;20.20;10.07;;;;;;;19.21;86.00;95624.88;5020341;28;20232;-75
2023/07/11 05:07:13;;;;;;;16.77;9.97;;;;;;;19.38;85.25;95631.09;5010793;28;20253;-75
2023/07/11 05:09:39;;;;;;;20.57;11.10;;;;;;;19.42;84.51;95627.72;4999206;28;20244;-74
2023/07/11 05:12:04;;;;;;;19.93;10.80;;;;;;;19.65;83.10;95623.38;5037771;28;20234;-74
2023/07/11 05:14:30;;;;;;;18.57;11.00;;;;;;;19.72;83.05;95624.84;5020983;28;20621;-73
2023/07/11 05:16:55;;;;;;;18.17;11.00;;;;;;;19.71;83.13;95627.72;5039604;28;20286;-74
2023/07/11 05:19:21;;;;;;;19.33;10.40;;;;;;;19.79;83.40;95624.69;5018213;28;20253;-74
2023/07/11 05:21:46;;;;;;;19.58;11.20;;;;;;;19.95;83.22;95622.03;5000862;28;20223;-74
2023/07/11 05:24:12;;;;;;;16.50;10.15;;;;;;;20.20;81.72;95615.53;5021844;28;20248;-73
2023/07/11 05:26:37;;;;;;;17.67;10.63;;;;;;;20.29;81.34;95620.22;5033498;28;20227;-74
2023/07/11 05:29:06;;;;;;;16.08;11.07;;;;;;;20.34;78.85;95617.66;5042125;28;20229;-75
2023/07/11 05:31:31;;;;;;;20.92;11.18;;;;;;;20.40;78.24;95615.84;5033817;28;20959;-75
2023/07/11 05:33:57;;;;;;;17.63;11.02;;;;;;;20.55;77.60;95624.06;5035356;28;20239;-75
2023/07/11 05:36:33;;;;;;;17.00;10.77;;;;;;;20.48;78.06;95623.44;5038090;28;20594;-75
2023/07/11 05:39:04;;;;;;;15.25;10.43;;;;;;;20.44;79.32;95625.78;5020004;28;20237;-75
2023/07/11 05:41:30;;;;;;;17.08;10.02;;;;;;;20.54;79.65;95625.13;5020533;28;20308;-75
2023/07/11 05:43:55;;;;;;;16.23;9.50;;;;;;;20.40;79.48;95627.31;5025572;28;20341;-74
2023/07/11 05:46:22;;;;;;;15.18;9.48;;;;;;;20.51;77.99;95626.44;5021243;28;20237;-75
2023/07/11 05:48:48;;;;;;;16.90;9.50;;;;;;;20.58;80.24;95631.56;5038190;28;20235;-75
2023/07/11 05:51:17;;;;;;;17.10;10.57;;;;;;;20.67;78.20;95632.75;5061490;28;20235;-75
2023/07/11 05:53:43;;;;;;;18.70;10.60;;;;;;;20.82;76.71;95617.78;5011855;28;20229;-74
2023/07/11 05:56:09;;;;;;;19.50;11.25;;;;;;;20.84;77.30;95622.91;5030793;28;20286;-75
2023/07/11 05:58:34;;;;;;;15.63;11.15;;;;;;;20.80;78.37;95627.09;5028341;28;20399;-74
2023/07/11 06:01:00;;;;;;;16.63;10.30;;;;;;;20.83;79.23;95614.09;5010157;28;20235;-74
2023/07/11 06:03:26;;;;;;;19.05;10.20;;;;;;;20.94;77.88;95612.38;5024370;28;20890;-75
2023/07/11 06:05:53;;;;;;;20.17;10.73;;;;;;;20.97;77.35;95619.84;5000458;28;20235;-75
2023/07/11 06:08:18;;;;;;;23.80;11.03;;;;;;;20.88;78.84;95626.66;5027907;28;20316;-74
2023/07/11 06:10:44;;;;;;;17.63;10.50;;;;;;;20.97;78.20;95625.19;5047356;28;20654;-75
2023/07/11 06:13:10;;;;;;;19.90;11.73;;;;;;;20.88;76.74;95620.53;5014541;28;20237;-75
2023/07/11 06:15:36;;;;;;;19.38;11.18;;;;;;;20.98;77.36;95621.47;5042676;28;20257;-75
2023/07/11 06:18:01;;;;;;;17.43;11.33;;;;;;;21.04;78.82;95623.13;5025241;28;20287;-75
2023/07/11 06:20:27;;;;;;;22.90;12.05;;;;;;;21.11;76.66;95621.13;5012579;28;20226;-75
2023/07/11 06:22:53;;;;;;;17.98;11.25;;;;;;;21.27;76.42;95625.59;5016237;28;20765;-74
2023/07/11 06:25:19;;;;;;;21.90;11.57;;;;;;;21.23;77.05;95623.69;5011275;28;20253;-74
2023/07/11 06:27:45;;;;;;;19.50;11.48;;;;;;;21.25;75.95;95624.25;5015691;28;20266;-75
2023/07/11 06:30:10;;;;;;;20.35;11.30;;;;;;;21.24;76.50;95631.41;5026676;28;20269;-75
2023/07/11 06:32:36;;;;;;;16.55;11.18;;;;;;;21.42;76.23;95623.09;5028495;28;20250;-75
2023/07/11 06:35:01;;;;;;;19.45;11.18;;;;;;;21.39;76.35;95623.63;5030450;28;20218;-75
2023/07/11 06:37:27;;;;;;;19.38;11.23;;;;;;;21.41;76.08;95618.84;5026035;28;20230;-75
2023/07/11 06:39:52;;;;;;;21.20;10.98;;;;;;;21.57;76.81;95611.00;5023372;28;20237;-74
2023/07/11 06:42:18;;;;;;;18.35;10.70;;;;;;;21.77;75.04;95613.88;5030449;28;20741;-75
2023/07/11 06:44:43;;;;;;;19.98;10.70;;;;;;;21.83;76.51;95618.22;5016384;28;20280;-74
2023/07/11 06:47:09;;;;;;;17.38;10.88;;;;;;;21.88;76.06;95616.41;5024134;28;20353;-75
2023/07/11 06:49:35;;;;;;;21.83;11.52;;;;;;;21.86;75.43;95613.19;5048479;28;20244;-75
2023/07/11 06:52:02;;;;;;;22.33;11.40;;;;;;;21.93;75.18;95613.78;5051252;28;20225;-75
2023/07/11 06:54:28;;;;;;;20.38;10.80;;;;;;;21.95;75.02;95613.53;5022912;28;20238;-75
2023/07/11 06:56:54;;;;;;;18.95;10.55;;;;;;;22.05;75.09;95619.78;5030183;28;20230;-74
2023/07/11 06:59:20;;;;;;;18.85;11.23;;;;;;;22.09;74.53;95606.75;5036625;28;20226;-74
2023/07/11 07:01:46;;;;;;;16.45;11.38;;;;;;;22.10;74.08;95606.47;5022005;28;20215;-74
2023/07/11 07:04:13;;;;;;;23.20;11.48;;;;;;;22.15;74.36;95605.72;5026518;28;20243;-75
2023/07/11 07:06:42;;;;;;;21.75;12.13;;;;;;;22.19;74.00;95612.13;5029310;28;20291;-74
2023/07/11 07:09:08;;;;;;;19.98;11.45;;;;;;;22.28;74.37;95607.16;5032188;28;20226;-74
2023/07/11 07:11:35;;;;;;;19.38;11.27;;;;;;;22.33;74.64;95602.63;5009550;28;20238;-74
2023/07/11 07:14:01;;;;;;;23.20;11.50;;;;;;;22.35;73.93;95605.88;5010954;28;20246;-74
2023/07/11 07:16:28;;;;;;;20.90;12.33;;;;;;;22.53;72.36;95610.81;5017543;28;20226;-73
2023/07/11 07:18:54;;;;;;;20.98;12.48;;;;;;;22.57;72.06;95603.88;5004162;28;20241;-73
2023/07/11 07:21:19;;;;;;;20.80;11.93;;;;;;;;;;5022962;28;20264;-74
2023/07/11 07:23:45;;;;;;;23.02;11.75;;;;;;;22.60;73.39;95597.22;5028393;28;20237;-74
2023/07/11 07:26:10;;;;;;;22.97;12.20;;;;;;;22.74;73.54;95603.75;5012483;28;20230;-74
2023/07/11 07:28:36;;;;;;;24.10;10.82;;;;;;;22.83;72.74;95594.22;5027296;28;20260;-74
2023/07/11 07:31:02;;;;;;;23.00;12.18;;;;;;;22.90;72.28;95596.63;5014940;28;20283;-74
2023/07/11 07:33:28;;;;;;;23.57;12.10;;;;;;;22.94;72.47;95603.06;5010992;28;20237;-73
2023/07/11 07:36:05;;;;;;;21.55;11.70;;;;;;;23.04;71.27;95593.25;4999029;28;20309;-74
2023/07/11 07:38:31;;;;;;;21.45;12.30;;;;;;;23.12;72.00;95589.28;5032776;28;20230;-74
2023/07/11 07:41:03;;;;;;;19.70;11.65;;;;;;;23.22;72.64;95582.09;5027907;28;20248;-74
2023/07/11 07:43:29;;;;;;;18.60;10.93;;;;;;;23.33;71.30;95598.97;5018582;28;20242;-73
2023/07/11 07:45:56;;;;;;;29.45;11.77;;;;;;;23.39;71.80;95595.25;5017348;28;20287;-74
2023/07/11 07:48:22;;;;;;;19.70;11.52;;;;;;;23.46;71.84;95593.13;5010564;28;20253;-74
2023/07/11 07:50:47;;;;;;;51.53;25.48;;;;;;;23.65;71.47;95588.91;5013736;28;20226;-74
2023/07/11 07:53:13;;;;;;;28.63;12.27;;;;;;;23.68;69.28;95592.91;5042715;28;20274;-73
2023/07/11 07:55:39;;;;;;;21.08;12.02;;;;;;;23.78;70.47;95593.75;5034725;28;20282;-74
2023/07/11 07:58:05;;;;;;;18.25;11.35;;;;;;;23.92;69.95;95599.38;5051137;28;20683;-74
2023/07/11 08:00:30;;;;;;;19.88;11.15;;;;;;;23.97;67.48;95602.88;5000431;28;20234;-75
2023/07/11 08:02:56;;;;;;;21.73;11.95;;;;;;;24.11;67.28;95592.47;5016205;28;20712;-74
2023/07/11 08:05:21;;;;;;;17.52;10.95;;;;;;;24.21;68.65;95597.03;5017180;28;20631;-74
2023/07/11 08:07:47;;;;;;;18.75;11.05;;;;;;;24.22;68.02;95594.06;5025272;28;20281;-74
2023/07/11 08:10:15;;;;;;;18.98;11.00;;;;;;;24.26;67.90;95583.63;5011656;28;20303;-74
2023/07/11 08:12:41;;;;;;;18.85;10.70;;;;;;;24.38;70.95;95571.59;4999284;28;20793;-74
2023/07/11 08:15:07;;;;;;;21.58;10.40;;;;;;;24.52;69.55;95571.84;5003655;28;20226;-74
2023/07/11 08:17:33;;;;;;;20.98;10.38;;;;;;;24.61;68.10;95580.91;5006974;28;20233;-74
2023/07/11 08:19:58;;;;;;;18.92;10.48;;;;;;;24.64;68.35;95577.69;5014675;28;20689;-74
2023/07/11 08:22:24;;;;;;;17.08;9.77;;;;;;;24.87;66.28;95568.28;5000486;28;20245;-74
2023/07/11 08:24:49;;;;;;;21.63;10.30;;;;;;;24.97;64.60;95577.09;5014020;28;20230;-74
2023/07/11 08:27:14;;;;;;;17.45;9.75;;;;;;;25.06;66.05;95577.31;5004360;28;20258;-73
2023/07/11 08:29:44;;;;;;;16.33;9.68;;;;;;;25.17;64.31;95568.97;5028394;28;20238;-74
2023/07/11 08:32:13;;;;;;;17.90;9.88;;;;;;;25.21;63.67;95564.69;5032893;28;20218;-74
2023/07/11 08:34:39;;;;;;;15.60;9.65;;;;;;;25.32;64.46;95576.94;4999014;28;20723;-74
2023/07/11 08:37:05;;;;;;;12.52;9.05;;;;;;;25.49;63.57;95573.13;5012554;28;20225;-74
2023/07/11 08:39:30;;;;;;;17.13;9.30;;;;;;;25.55;65.10;95559.44;5029797;28;20230;-73
2023/07/11 08:41:56;;;;;;;14.30;9.00;;;;;;;25.67;62.75;95573.31;5006406;28;20715;-73
2023/07/11 08:44:44;;;;;;;16.77;8.93;;;;;;;25.86;61.70;95565.41;5013618;28;20233;-75
2023/07/11 08:47:19;;;;;;;16.80;8.65;;;;;;;25.96;59.28;95571.47;5031643;28;20313;-74
2023/07/11 08:49:53;;;;;;;17.65;8.10;;;;;;;26.12;61.46;95574.09;5031097;28;20629;-73
2023/07/11 08:52:18;;;;;;;13.38;8.07;;;;;;;26.28;59.98;95570.19;5011659;28;20712;-75
2023/07/11 08:55:10;;;;;;;13.38;8.10;;;;;;;26.40;58.69;95576.81;5024656;28;20234;-73
2023/07/11 08:57:37;;;;;;;12.05;7.95;;;;;;;26.34;58.26;95566.41;5024779;28;22104;-74
2023/07/11 09:00:08;;;;;;;12.50;8.32;;;;;;;26.37;57.99;95569.31;5034057;28;20407;-75
2023/07/11 09:03:04;;;;;;;11.52;7.72;;;;;;;26.57;57.85;95569.13;5016124;28;20234;-73
2023/07/11 09:05:45;;;;;;;16.77;8.13;;;;;;;26.73;56.65;95561.69;5027838;28;20309;-73
2023/07/11 09:08:15;;;;;;;14.00;8.35;;;;;;;26.73;57.75;95561.69;5022113;28;20240;-74
2023/07/11 09:10:53;;;;;;;12.88;7.90;;;;;;;26.73;57.75;95564.38;5018561;28;20231;-75
2023/07/11 09:13:40;;;;;;;10.75;8.30;;;;;;;26.94;55.80;95559.63;5035266;28;20213;-73
2023/07/11 09:16:27;;;;;;;13.15;8.45;;;;;;;26.91;57.34;95554.81;5033028;28;20225;-73
2023/07/11 09:19:13;;;;;;;11.93;7.50;;;;;;;27.01;55.10;95552.81;5033069;28;20248;-74
2023/07/11 09:21:52;;;;;;;12.80;7.43;;;;;;;27.06;53.58;95558.13;5024262;28;20237;-73
2023/07/11 09:24:35;;;;;;;12.77;7.57;;;;;;;27.13;56.06;95557.78;5027292;28;20233;-74
2023/07/11 09:27:37;;;;;;;12.60;7.35;;;;;;;27.31;52.92;95559.72;5030573;28;20230;-74
2023/07/11 09:30:23;;;;;;;11.38;7.30;;;;;;;27.54;53.33;95564.25;5016973;28;20228;-75
2023/07/11 09:32:49;;;;;;;11.35;7.43;;;;;;;27.54;53.62;95563.47;5011754;28;20319;-74
2023/07/11 09:35:24;;;;;;;11.63;7.20;;;;;;;27.75;51.80;95554.81;5011014;28;20647;-74
2023/07/11 09:37:52;;;;;;;13.13;7.22;;;;;;;27.69;53.44;95547.91;5043691;28;20745;-75
2023/07/11 09:40:39;;;;;;;10.60;7.28;;;;;;;27.75;52.14;95554.81;5013665;28;20234;-74
2023/07/11 09:43:05;;;;;;;10.30;7.05;;;;;;;27.75;51.42;95551.34;5036536;28;20249;-75
2023/07/11 09:45:39;;;;;;;10.82;6.50;;;;;;;27.88;51.96;95547.91;5038453;28;20228;-74
2023/07/11 09:48:27;;;;;;;13.90;7.72;;;;;;;27.95;53.37;95551.00;5008878;28;20234;-75
2023/07/11 09:51:06;;;;;;;8.63;6.97;;;;;;;27.98;52.08;95551.25;5049168;28;20256;-75
2023/07/11 09:53:32;;;;;;;11.43;7.10;;;;;;;28.19;51.08;95545.53;5031381;28;20328;-75
2023/07/11 09:55:59;;;;;;;11.00;6.95;;;;;;;28.18;50.45;95546.66;5038499;28;20241;-75
2023/07/11 09:58:27;;;;;;;10.52;7.25;;;;;;;28.29;49.80;95545.38;5027260;28;20232;-75
2023/07/11 10:00:54;;;;;;;9.48;6.75;;;;;;;28.39;50.17;95545.22;5048554;28;20237;-74
2023/07/11 10:03:21;;;;;;;10.05;6.93;;;;;;;28.37;50.70;95545.53;5031099;28;20226;-75
2023/07/11 10:05:48;;;;;;;10.38;6.90;;;;;;;28.48;48.88;95536.16;5033386;28;20810;-75
2023/07/11 10:08:17;;;;;;;9.82;7.30;;;;;;;28.68;50.94;95535.03;5028786;28;20651;-75
2023/07/11 10:10:47;;;;;;;10.77;6.88;;;;;;;28.86;48.68;95534.13;5047339;28;20244;-74
2023/07/11 10:13:13;;;;;;;11.55;7.00;;;;;;;28.73;49.50;95528.72;5029352;28;20222;-74
2023/07/11 10:15:39;;;;;;;10.55;6.82;;;;;;;28.73;48.85;95539.50;5028432;28;20264;-74
2023/07/11 10:18:04;;;;;;;10.82;6.90;;;;;;;28.69;50.82;95532.00;5024995;28;20438;-74
2023/07/11 10:20:31;;;;;;;11.35;6.93;;;;;;;28.85;49.70;95524.44;5028414;28;20258;-74
2023/07/11 10:23:02;;;;;;;12.40;7.10;;;;;;;28.77;50.45;95527.84;5016429;28;20232;-75
2023/07/11 10:25:28;;;;;;;12.85;7.15;;;;;;;28.69;51.55;95521.25;4988571;28;20324;-75
2023/07/11 10:27:58;;;;;;;10.40;7.20;;;;;;;28.55;51.79;95525.78;5018237;28;20321;-74
2023/07/11 10:30:26;;;;;;;11.68;7.10;;;;;;;28.84;49.67;95522.03;5039274;28;20238;-75
2023/07/11 10:33:11;;;;;;;9.85;6.78;;;;;;;29.05;49.11;95528.63;5015197;28;20226;-74
2023/07/11 10:35:36;;;;;;;12.20;6.85;;;;;;;29.15;48.67;95521.13;5003876;28;20723;-74
2023/07/11 10:38:04;;;;;;;13.48;7.10;;;;;;;29.21;50.21;95519.13;5008903;28;20229;-75
2023/07/11 10:40:40;;;;;;;10.32;6.88;;;;;;;29.26;49.76;95525.22;5010298;28;20336;-75
2023/07/11 10:43:15;;;;;;;10.45;6.90;;;;;;;29.16;48.51;95516.53;5031323;28;20240;-75
2023/07/11 10:45:43;;;;;;;8.13;6.22;;;;;;;29.30;47.61;95523.53;5023764;28;20329;-73
2023/07/11 10:48:49;;;;;;;8.48;6.50;;;;;;;29.48;47.55;95518.28;5025103;28;20866;-73
2023/07/11 10:51:17;;;;;;;8.75;6.30;;;;;;;29.46;47.33;95513.22;4971958;28;20239;-75
2023/07/11 10:54:03;;;;;;;10.98;6.60;;;;;;;29.46;47.65;95507.81;4976068;28;20235;-75
2023/07/11 10:56:43;;;;;;;8.55;6.30;;;;;;;29.35;47.50;95503.75;5010587;28;20233;-75
2023/07/11 10:59:12;;;;;;;10.07;6.88;;;;;;;29.37;47.28;95503.44;5032017;28;20237;-75
2023/07/11 11:02:05;;;;;;;11.68;6.72;;;;;;;29.45;46.37;95500.03;5031486;28;20237;-73
2023/07/11 11:04:45;;;;;;;8.63;6.53;;;;;;;29.57;45.17;95503.00;5024202;28;20238;-76
2023/07/11 11:07:26;;;;;;;11.18;6.10;;;;;;;29.63;47.09;95504.47;5041887;28;20234;-75
2023/07/11 11:09:59;;;;;;;8.88;6.50;;;;;;;29.65;45.55;95496.84;5032134;28;20232;-74
2023/07/11 11:12:50;;;;;;;14.30;6.80;;;;;;;29.66;46.85;95493.06;5011461;28;20307;-74
2023/07/11 11:15:21;;;;;;;10.52;6.38;;;;;;;29.76;47.46;95490.94;5032642;28;20691;-76
2023/07/11 11:17:53;;;;;;;9.25;6.18;;;;;;;29.85;45.96;95488.31;5049585;28;20249;-75
2023/07/11 11:20:27;;;;;;;11.48;6.95;;;;;;;29.76;45.86;95490.94;5042451;28;20232;-74
2023/07/11 11:23:02;;;;;;;10.65;6.30;;;;;;;29.76;45.09;95496.34;5026947;28;20242;-76
2023/07/11 11:25:45;;;;;;;10.07;6.60;;;;;;;29.66;46.48;95482.28;5057881;28;20330;-75
2023/07/11 11:28:17;;;;;;;10.40;6.63;;;;;;;29.70;45.84;95483.25;5053674;28;20233;-75